createdAt,value
2018-12-15T00:00:58.099Z,10.68
2018-12-15T00:03:29.766Z,10.38
2018-12-15T00:06:01.945Z,9.70
2018-12-15T00:08:35.732Z,10.30
2018-12-15T00:11:03.206Z,10.20
2018-12-15T00:13:30.660Z,9.20
2018-12-15T00:15:58.131Z,9.78
2018-12-15T00:18:25.569Z,10.53
2018-12-15T00:20:53.529Z,11.00
2018-12-15T00:23:20.972Z,11.10
2018-12-15T00:25:48.447Z,10.90
2018-12-15T00:28:15.899Z,11.40
2018-12-15T00:30:43.355Z,11.65
2018-12-15T00:33:10.814Z,12.15
2018-12-15T00:35:38.250Z,11.08
2018-12-15T00:38:05.702Z,11.28
2018-12-15T00:40:33.215Z,12.53
2018-12-15T00:43:00.679Z,10.15
2018-12-15T00:45:28.118Z,12.63
2018-12-15T00:47:55.584Z,11.97
2018-12-15T00:50:24.330Z,11.88
2018-12-15T00:52:57.054Z,11.12
2018-12-15T00:55:27.884Z,11.90
2018-12-15T00:57:57.735Z,12.37
2018-12-15T01:00:26.095Z,10.25
2018-12-15T01:03:10.104Z,12.25
2018-12-15T01:05:54.654Z,10.48
2018-12-15T01:08:25.066Z,11.18
2018-12-15T01:11:08.586Z,13.60
2018-12-15T01:13:51.687Z,12.10
2018-12-15T01:16:34.674Z,11.57
2018-12-15T01:19:02.169Z,11.83
2018-12-15T01:21:29.614Z,10.80
2018-12-15T01:23:57.136Z,12.37
2018-12-15T01:26:24.665Z,12.03
2018-12-15T01:28:52.111Z,10.68
2018-12-15T01:31:19.571Z,13.08
2018-12-15T01:33:47.007Z,11.83
2018-12-15T01:36:14.455Z,11.03
2018-12-15T01:38:41.889Z,11.78
2018-12-15T01:41:09.344Z,10.10
2018-12-15T01:43:36.887Z,11.78
2018-12-15T01:46:04.839Z,11.35
2018-12-15T01:48:32.373Z,9.95
2018-12-15T01:50:59.882Z,10.38
2018-12-15T01:53:39.645Z,11.78
2018-12-15T01:56:10.800Z,10.82
2018-12-15T01:58:42.426Z,11.50
2018-12-15T02:01:09.867Z,10.10
2018-12-15T02:03:37.310Z,10.68
2018-12-15T02:06:04.755Z,9.88
2018-12-15T02:08:32.215Z,10.05
2018-12-15T02:10:59.646Z,9.70
2018-12-15T02:13:27.098Z,10.68
2018-12-15T02:15:54.555Z,11.22
2018-12-15T02:18:22.141Z,11.90
2018-12-15T02:20:49.583Z,11.48
2018-12-15T02:23:17.040Z,12.18
2018-12-15T02:25:44.488Z,10.35
2018-12-15T02:28:11.934Z,12.58
2018-12-15T02:30:39.391Z,10.98
2018-12-15T02:33:06.860Z,11.15
2018-12-15T02:35:34.299Z,10.70
2018-12-15T02:38:01.758Z,12.15
2018-12-15T02:40:29.301Z,10.75
2018-12-15T02:42:56.744Z,9.98
2018-12-15T02:45:24.185Z,11.15
2018-12-15T02:47:51.632Z,11.10
2018-12-15T02:50:19.083Z,10.78
2018-12-15T02:52:46.527Z,12.30
2018-12-15T02:55:14.800Z,10.85
2018-12-15T02:57:42.247Z,12.30
2018-12-15T03:00:09.839Z,11.53
2018-12-15T03:02:37.282Z,11.53
2018-12-15T03:05:04.963Z,11.50
2018-12-15T03:07:32.402Z,12.40
2018-12-15T03:09:59.940Z,11.73
2018-12-15T03:12:27.371Z,11.73
2018-12-15T03:14:54.842Z,11.10
2018-12-15T03:17:22.362Z,10.60
2018-12-15T03:19:50.336Z,10.98
2018-12-15T03:22:17.779Z,11.80
2018-12-15T03:24:45.221Z,11.78
2018-12-15T03:27:12.802Z,11.57
2018-12-15T03:29:40.332Z,12.63
2018-12-15T03:32:07.785Z,10.75
2018-12-15T03:34:35.321Z,12.15
2018-12-15T03:37:02.770Z,12.00
2018-12-15T03:39:30.216Z,11.60
2018-12-15T03:41:57.731Z,12.50
2018-12-15T03:44:25.181Z,11.78
2018-12-15T03:46:52.645Z,10.82
2018-12-15T03:49:20.095Z,10.90
2018-12-15T03:51:47.531Z,11.40
2018-12-15T03:54:15.411Z,12.37
2018-12-15T03:56:43.136Z,11.90
2018-12-15T03:59:10.835Z,12.05
2018-12-15T04:01:38.394Z,13.15
2018-12-15T04:04:05.827Z,12.90
2018-12-15T04:06:33.262Z,13.03
2018-12-15T04:09:00.722Z,11.55
2018-12-15T04:11:28.421Z,12.10
2018-12-15T04:13:55.860Z,12.18
2018-12-15T04:16:23.299Z,12.50
2018-12-15T04:18:50.752Z,12.03
2018-12-15T04:21:18.198Z,11.43
2018-12-15T04:23:45.716Z,12.00
2018-12-15T04:26:13.176Z,12.13
2018-12-15T04:28:40.624Z,12.05
2018-12-15T04:31:08.064Z,12.25
2018-12-15T04:33:36.189Z,13.25
2018-12-15T04:36:21.278Z,12.90
2018-12-15T04:38:48.726Z,11.38
2018-12-15T04:41:16.166Z,11.63
2018-12-15T04:43:43.615Z,12.55
2018-12-15T04:46:12.413Z,11.10
2018-12-15T04:48:39.856Z,11.57
2018-12-15T04:51:07.310Z,11.88
2018-12-15T04:53:34.758Z,11.97
2018-12-15T04:56:02.214Z,11.97
2018-12-15T04:58:29.744Z,11.48
2018-12-15T05:00:57.178Z,11.18
2018-12-15T05:03:24.614Z,10.40
2018-12-15T05:05:52.066Z,11.95
2018-12-15T05:08:19.914Z,12.15
2018-12-15T05:10:47.390Z,12.13
2018-12-15T05:13:14.838Z,11.73
2018-12-15T05:15:42.299Z,12.58
2018-12-15T05:18:09.738Z,10.40
2018-12-15T05:20:37.189Z,10.78
2018-12-15T05:23:04.636Z,13.40
2018-12-15T05:25:32.079Z,12.05
2018-12-15T05:27:59.599Z,11.63
2018-12-15T05:30:27.885Z,11.55
2018-12-15T05:32:55.336Z,11.83
2018-12-15T05:35:22.783Z,11.03
2018-12-15T05:37:50.226Z,11.68
2018-12-15T05:40:17.668Z,11.40
2018-12-15T05:42:45.112Z,11.20
2018-12-15T05:45:12.706Z,10.78
2018-12-15T05:47:41.631Z,12.00
2018-12-15T05:50:09.137Z,10.48
2018-12-15T05:52:36.584Z,11.60
2018-12-15T05:55:04.023Z,10.43
2018-12-15T05:57:31.473Z,12.10
2018-12-15T05:59:58.914Z,11.10
2018-12-15T06:02:26.820Z,10.50
2018-12-15T06:04:55.262Z,10.90
2018-12-15T06:07:22.738Z,10.75
2018-12-15T06:09:50.187Z,10.75
2018-12-15T06:12:17.626Z,10.35
2018-12-15T06:14:45.083Z,10.25
2018-12-15T06:17:12.528Z,9.18
2018-12-15T06:19:40.021Z,9.55
2018-12-15T06:22:07.468Z,10.60
2018-12-15T06:24:34.919Z,11.40
2018-12-15T06:27:02.368Z,10.68
2018-12-15T06:29:29.842Z,10.85
2018-12-15T06:31:57.819Z,10.40
2018-12-15T06:34:25.272Z,10.70
2018-12-15T06:36:53.711Z,9.73
2018-12-15T06:39:21.161Z,11.65
2018-12-15T06:41:48.631Z,11.03
2018-12-15T06:44:16.746Z,11.93
2018-12-15T06:46:44.199Z,12.47
2018-12-15T06:49:11.643Z,10.13
2018-12-15T06:51:39.108Z,10.60
2018-12-15T06:54:09.507Z,11.90
2018-12-15T06:56:36.966Z,11.45
2018-12-15T06:59:05.065Z,11.78
2018-12-15T07:01:32.523Z,11.68
2018-12-15T07:03:59.954Z,12.53
2018-12-15T07:06:27.490Z,11.80
2018-12-15T07:08:54.937Z,12.28
2018-12-15T07:11:22.380Z,11.57
2018-12-15T07:13:49.829Z,11.68
2018-12-15T07:16:17.277Z,11.15
2018-12-15T07:18:45.074Z,11.18
2018-12-15T07:21:12.571Z,10.90
2018-12-15T07:23:40.019Z,11.97
2018-12-15T07:26:07.485Z,12.23
2018-12-15T07:28:34.930Z,12.35
2018-12-15T07:31:02.391Z,12.45
2018-12-15T07:33:29.844Z,11.50
2018-12-15T07:35:57.278Z,12.82
2018-12-15T07:38:24.734Z,13.03
2018-12-15T07:40:52.174Z,13.05
2018-12-15T07:43:19.891Z,12.53
2018-12-15T07:45:47.495Z,12.70
2018-12-15T07:48:17.667Z,13.13
2018-12-15T07:50:48.691Z,12.28
2018-12-15T07:53:16.131Z,11.83
2018-12-15T07:55:43.575Z,12.03
2018-12-15T07:58:11.210Z,13.58
2018-12-15T08:00:38.663Z,12.60
2018-12-15T08:03:06.099Z,11.40
2018-12-15T08:05:33.711Z,12.47
2018-12-15T08:08:01.147Z,12.65
2018-12-15T08:10:30.631Z,13.08
2018-12-15T08:13:00.034Z,13.62
2018-12-15T08:15:27.570Z,12.63
2018-12-15T08:17:55.005Z,12.20
2018-12-15T08:20:22.570Z,13.60
2018-12-15T08:22:50.023Z,12.00
2018-12-15T08:25:17.470Z,13.40
2018-12-15T08:27:44.921Z,12.70
2018-12-15T08:30:12.426Z,12.98
2018-12-15T08:32:39.865Z,12.33
2018-12-15T08:35:07.370Z,14.10
2018-12-15T08:37:34.827Z,12.15
2018-12-15T08:40:04.592Z,13.93
2018-12-15T08:42:32.095Z,11.43
2018-12-15T08:44:59.592Z,14.30
2018-12-15T08:47:28.824Z,13.05
2018-12-15T08:49:56.995Z,14.40
2018-12-15T08:52:24.507Z,14.70
2018-12-15T08:54:52.400Z,14.63
2018-12-15T08:57:24.202Z,14.85
2018-12-15T08:59:52.129Z,12.82
2018-12-15T09:02:19.614Z,13.93
2018-12-15T09:04:47.071Z,14.33
2018-12-15T09:07:14.540Z,12.45
2018-12-15T09:09:42.020Z,13.30
2018-12-15T09:12:09.451Z,14.03
2018-12-15T09:14:36.915Z,13.83
2018-12-15T09:17:04.363Z,13.83
2018-12-15T09:19:31.822Z,15.13
2018-12-15T09:21:59.275Z,14.87
2018-12-15T09:24:26.706Z,12.65
2018-12-15T09:26:54.171Z,15.30
2018-12-15T09:29:21.609Z,14.50
2018-12-15T09:31:49.064Z,14.65
2018-12-15T09:34:17.438Z,15.10
2018-12-15T09:36:44.891Z,12.88
2018-12-15T09:39:12.355Z,14.60
2018-12-15T09:41:39.950Z,14.10
2018-12-15T09:44:07.546Z,15.65
2018-12-15T09:46:35.119Z,14.38
2018-12-15T09:49:03.579Z,15.08
2018-12-15T09:51:35.541Z,14.07
2018-12-15T09:54:03.174Z,15.48
2018-12-15T09:56:30.627Z,13.10
2018-12-15T09:58:58.071Z,14.10
2018-12-15T10:01:25.603Z,14.85
2018-12-15T10:03:54.386Z,14.35
2018-12-15T10:06:21.893Z,14.98
2018-12-15T10:08:49.356Z,14.38
2018-12-15T10:11:16.803Z,15.98
2018-12-15T10:13:44.262Z,15.00
2018-12-15T10:16:11.706Z,14.28
2018-12-15T10:18:39.170Z,14.35
2018-12-15T10:21:06.619Z,15.70
2018-12-15T10:23:34.087Z,13.40
2018-12-15T10:26:01.519Z,12.90
2018-12-15T10:28:30.341Z,13.78
2018-12-15T10:31:05.419Z,14.75
2018-12-15T10:33:34.915Z,13.88
2018-12-15T10:36:03.570Z,15.50
2018-12-15T10:38:32.334Z,12.88
2018-12-15T10:41:01.010Z,13.78
2018-12-15T10:43:30.058Z,22.25
2018-12-15T10:45:59.899Z,16.10
2018-12-15T10:48:29.202Z,15.70
2018-12-15T10:51:02.039Z,16.48
2018-12-15T10:53:33.097Z,16.07
2018-12-15T10:56:02.040Z,16.23
2018-12-15T10:58:33.760Z,15.50
2018-12-15T11:01:09.323Z,15.40
2018-12-15T11:03:39.550Z,15.80
2018-12-15T11:06:12.118Z,14.75
2018-12-15T11:11:13.772Z,14.90
2018-12-15T11:13:45.522Z,15.18
2018-12-15T11:16:13.228Z,16.27
2018-12-15T11:18:41.254Z,14.73
2018-12-15T11:21:10.994Z,15.72
2018-12-15T11:23:41.004Z,22.15
2018-12-15T11:26:13.059Z,14.23
2018-12-15T11:28:41.028Z,14.60
2018-12-15T11:31:10.903Z,14.23
2018-12-15T11:33:40.775Z,15.95
2018-12-15T11:36:08.303Z,13.90
2018-12-15T11:38:37.206Z,13.00
2018-12-15T11:41:05.839Z,12.23
2018-12-15T11:43:35.759Z,12.37
2018-12-15T11:46:07.885Z,13.08
2018-12-15T11:48:37.499Z,13.58
2018-12-15T11:51:11.070Z,12.58
2018-12-15T11:53:39.251Z,13.10
2018-12-15T11:56:07.634Z,14.38
2018-12-15T11:58:37.990Z,15.90
2018-12-15T12:01:07.225Z,13.40
2018-12-15T12:03:37.855Z,13.75
2018-12-15T12:06:09.961Z,15.83
2018-12-15T12:08:38.655Z,14.00
2018-12-15T12:11:10.211Z,15.08
2018-12-15T12:13:38.058Z,13.53
2018-12-15T12:16:07.257Z,13.48
2018-12-15T12:18:37.425Z,13.18
2018-12-15T12:21:08.758Z,14.65
2018-12-15T12:23:38.745Z,13.95
2018-12-15T12:26:11.205Z,14.05
2018-12-15T12:28:42.166Z,14.78
2018-12-15T12:31:10.178Z,14.73
2018-12-15T12:33:40.702Z,15.00
2018-12-15T12:36:09.687Z,14.25
2018-12-15T12:38:38.932Z,14.30
2018-12-15T12:41:06.976Z,12.88
2018-12-15T12:43:35.428Z,14.75
2018-12-15T12:46:08.468Z,14.50
2018-12-15T12:48:38.421Z,12.85
2018-12-15T12:51:06.832Z,14.93
2018-12-15T12:53:34.278Z,15.28
2018-12-15T12:56:01.787Z,14.10
2018-12-15T12:58:29.243Z,13.38
2018-12-15T13:00:56.676Z,13.75
2018-12-15T13:03:24.158Z,13.93
2018-12-15T13:05:51.597Z,15.53
2018-12-15T13:08:19.044Z,14.05
2018-12-15T13:10:46.501Z,15.43
2018-12-15T13:13:13.954Z,13.43
2018-12-15T13:15:41.399Z,14.07
2018-12-15T13:18:08.845Z,14.05
2018-12-15T13:20:36.314Z,14.95
2018-12-15T13:23:03.750Z,13.53
2018-12-15T13:25:31.194Z,13.05
2018-12-15T13:27:58.651Z,12.40
2018-12-15T13:30:26.272Z,14.03
2018-12-15T13:32:53.706Z,12.65
2018-12-15T13:35:21.239Z,14.43
2018-12-15T13:37:48.751Z,14.00
2018-12-15T13:40:16.202Z,12.03
2018-12-15T13:42:43.649Z,13.15
2018-12-15T13:45:11.560Z,14.45
2018-12-15T13:47:39.010Z,11.48
2018-12-15T13:50:10.273Z,12.43
2018-12-15T13:52:36.996Z,12.98
2018-12-15T13:55:04.903Z,12.00
2018-12-15T13:57:32.352Z,11.28
2018-12-15T14:00:00.574Z,12.37
2018-12-15T14:02:28.717Z,10.40
2018-12-15T14:04:56.165Z,10.43
2018-12-15T14:07:23.603Z,12.78
2018-12-15T14:09:51.054Z,13.28
2018-12-15T14:12:18.707Z,11.80
2018-12-15T14:14:46.203Z,11.80
2018-12-15T14:17:13.641Z,13.60
2018-12-15T14:19:41.088Z,11.28
2018-12-15T14:22:08.640Z,12.55
2018-12-15T14:24:36.083Z,13.50
2018-12-15T14:27:03.599Z,13.35
2018-12-15T14:29:31.033Z,13.35
2018-12-15T14:31:58.490Z,15.10
2018-12-15T14:34:25.939Z,14.93
2018-12-15T14:36:53.397Z,14.45
2018-12-15T14:39:20.894Z,13.78
2018-12-15T14:41:48.349Z,12.45
2018-12-15T14:44:16.791Z,12.85
2018-12-15T14:46:44.255Z,12.70
2018-12-15T14:49:11.693Z,13.38
2018-12-15T14:51:39.219Z,12.30
2018-12-15T14:54:06.655Z,11.65
2018-12-15T14:56:34.336Z,12.53
2018-12-15T14:59:01.795Z,13.83
2018-12-15T15:01:29.241Z,14.10
2018-12-15T15:03:56.696Z,14.93
2018-12-15T15:06:24.146Z,12.82
2018-12-15T15:08:51.575Z,13.95
2018-12-15T15:11:19.127Z,12.78
2018-12-15T15:13:46.580Z,15.50
2018-12-15T15:16:14.007Z,13.45
2018-12-15T15:18:41.463Z,14.53
2018-12-15T15:21:08.910Z,14.25
2018-12-15T15:23:36.373Z,13.38
2018-12-15T15:26:03.815Z,14.43
2018-12-15T15:28:31.271Z,14.70
2018-12-15T15:30:59.654Z,14.38
2018-12-15T15:33:27.107Z,15.43
2018-12-15T15:35:54.547Z,16.15
2018-12-15T15:38:22.075Z,16.17
2018-12-15T15:40:49.518Z,16.02
2018-12-15T15:43:16.966Z,15.55
2018-12-15T15:45:44.411Z,17.98
2018-12-15T15:48:11.863Z,14.00
2018-12-15T15:50:39.311Z,13.05
2018-12-15T15:53:06.771Z,14.15
2018-12-15T15:55:34.276Z,14.23
2018-12-15T15:58:01.723Z,13.75
2018-12-15T16:00:29.198Z,12.85
2018-12-15T16:02:56.681Z,14.18
2018-12-15T16:05:24.183Z,14.40
2018-12-15T16:07:51.704Z,15.03
2018-12-15T16:10:19.157Z,13.53
2018-12-15T16:12:46.633Z,16.52
2018-12-15T16:15:14.212Z,14.75
2018-12-15T16:17:41.657Z,14.85
2018-12-15T16:20:10.172Z,14.73
2018-12-15T16:22:37.622Z,14.85
2018-12-15T16:25:05.199Z,15.32
2018-12-15T16:27:32.626Z,15.58
2018-12-15T16:30:00.087Z,15.10
2018-12-15T16:32:27.552Z,14.65
2018-12-15T16:34:55.022Z,14.30
2018-12-15T16:37:22.550Z,13.20
2018-12-15T16:39:49.998Z,13.78
2018-12-15T16:42:17.440Z,13.60
2018-12-15T16:44:44.949Z,15.58
2018-12-15T16:47:12.404Z,16.67
2018-12-15T16:49:39.981Z,14.10
2018-12-15T16:52:07.407Z,14.93
2018-12-15T16:54:34.876Z,14.23
2018-12-15T16:57:02.354Z,16.05
2018-12-15T16:59:29.818Z,14.78
2018-12-15T17:01:57.320Z,14.63
2018-12-15T17:04:24.776Z,15.72
2018-12-15T17:06:52.250Z,14.13
2018-12-15T17:09:19.797Z,15.95
2018-12-15T17:11:47.369Z,15.53
2018-12-15T17:14:15.378Z,15.18
2018-12-15T17:16:42.961Z,15.13
2018-12-15T17:19:10.444Z,14.58
2018-12-15T17:21:37.993Z,14.55
2018-12-15T17:24:05.438Z,14.00
2018-12-15T17:26:35.091Z,13.30
2018-12-15T17:29:02.613Z,14.00
2018-12-15T17:31:30.073Z,15.38
2018-12-15T17:33:57.787Z,14.55
2018-12-15T17:36:25.234Z,15.00
2018-12-15T17:38:52.687Z,15.50
2018-12-15T17:41:20.141Z,15.28
2018-12-15T17:43:47.634Z,12.82
2018-12-15T17:46:15.097Z,16.93
2018-12-15T17:48:42.529Z,16.60
2018-12-15T17:51:09.983Z,16.52
2018-12-15T17:53:37.462Z,15.00
2018-12-15T17:56:04.942Z,17.02
2018-12-15T18:01:06.201Z,16.10
2018-12-15T18:03:33.700Z,13.88
2018-12-15T18:06:01.182Z,15.53
2018-12-15T18:08:28.625Z,15.43
2018-12-15T18:10:56.078Z,14.43
2018-12-15T18:13:23.535Z,15.28
2018-12-15T18:15:51.130Z,14.25
2018-12-15T18:18:18.644Z,14.23
2018-12-15T18:20:46.102Z,14.68
2018-12-15T18:23:13.554Z,14.03
2018-12-15T18:25:41.024Z,17.02
2018-12-15T18:28:08.449Z,17.32
2018-12-15T18:30:35.901Z,13.35
2018-12-15T18:33:03.341Z,14.73
2018-12-15T18:35:31.033Z,13.80
2018-12-15T18:37:58.490Z,15.80
2018-12-15T18:40:25.939Z,14.58
2018-12-15T18:42:53.417Z,13.95
2018-12-15T18:45:20.868Z,13.43
2018-12-15T18:47:48.313Z,15.38
2018-12-15T18:50:15.753Z,10.18
2018-12-15T18:52:43.216Z,13.03
2018-12-15T18:55:10.667Z,15.38
2018-12-15T18:57:38.144Z,14.90
2018-12-15T19:00:07.618Z,12.53
2018-12-15T19:02:35.149Z,16.70
2018-12-15T19:05:02.623Z,13.68
2018-12-15T19:07:30.082Z,15.60
2018-12-15T19:09:57.533Z,13.40
2018-12-15T19:12:24.996Z,16.70
2018-12-15T19:14:52.437Z,16.73
2018-12-15T19:17:19.958Z,14.98
2018-12-15T19:19:47.434Z,14.35
2018-12-15T19:22:14.879Z,13.32
2018-12-15T19:24:42.322Z,13.60
2018-12-15T19:27:10.668Z,13.58
2018-12-15T19:29:38.117Z,13.70
2018-12-15T19:32:05.591Z,14.45
2018-12-15T19:34:33.111Z,17.23
2018-12-15T19:37:00.567Z,13.85
2018-12-15T19:39:28.020Z,16.10
2018-12-15T19:41:55.488Z,13.78
2018-12-15T19:44:22.939Z,15.43
2018-12-15T19:46:50.382Z,15.35
2018-12-15T19:49:17.834Z,14.38
2018-12-15T19:51:45.359Z,15.88
2018-12-15T19:54:12.887Z,15.23
2018-12-15T19:56:40.331Z,15.98
2018-12-15T19:59:09.758Z,15.63
2018-12-15T20:01:37.202Z,13.80
2018-12-15T20:04:04.654Z,17.48
2018-12-15T20:06:32.088Z,14.95
2018-12-15T20:08:59.544Z,16.12
2018-12-15T20:11:26.982Z,17.00
2018-12-15T20:13:54.434Z,15.20
2018-12-15T20:16:21.867Z,15.95
2018-12-15T20:18:49.317Z,15.55
2018-12-15T20:21:16.753Z,15.10
2018-12-15T20:23:44.206Z,14.65
2018-12-15T20:26:11.643Z,16.00
2018-12-15T20:28:39.118Z,17.57
2018-12-15T20:31:06.639Z,16.07
2018-12-15T20:33:34.100Z,16.20
2018-12-15T20:36:01.552Z,17.30
2018-12-15T20:38:29.006Z,16.70
2018-12-15T20:40:56.444Z,19.20
2018-12-15T20:43:23.890Z,18.02
2018-12-15T20:45:51.330Z,17.77
2018-12-15T20:48:23.795Z,15.13
2018-12-15T20:50:51.310Z,17.77
2018-12-15T20:53:20.710Z,15.60
2018-12-15T20:55:48.302Z,16.23
2018-12-15T20:58:15.814Z,14.00
2018-12-15T21:00:43.277Z,15.40
2018-12-15T21:03:10.735Z,18.05
2018-12-15T21:05:38.187Z,16.10
2018-12-15T21:08:05.623Z,17.30
2018-12-15T21:10:35.267Z,18.50
2018-12-15T21:13:02.726Z,15.60
2018-12-15T21:15:32.140Z,16.70
2018-12-15T21:17:59.584Z,17.73
2018-12-15T21:20:27.070Z,14.35
2018-12-15T21:22:54.680Z,18.87
2018-12-15T21:25:22.147Z,14.83
2018-12-15T21:27:49.676Z,17.57
2018-12-15T21:30:17.140Z,18.20
2018-12-15T21:32:45.581Z,15.30
2018-12-15T21:35:13.083Z,17.90
2018-12-15T21:37:40.533Z,15.78
2018-12-15T21:40:08.106Z,16.87
2018-12-15T21:42:35.547Z,17.20
2018-12-15T21:45:03.130Z,14.00
2018-12-15T21:47:30.570Z,16.05
2018-12-15T21:49:58.025Z,16.60
2018-12-15T21:52:25.469Z,16.70
2018-12-15T21:54:55.854Z,17.92
2018-12-15T21:57:24.341Z,14.98
2018-12-15T21:59:51.810Z,15.03
2018-12-15T22:02:19.268Z,18.92
2018-12-15T22:04:50.034Z,17.07
2018-12-15T22:07:18.190Z,18.70
2018-12-15T22:09:46.677Z,14.87
2018-12-15T22:12:14.442Z,19.12
2018-12-15T22:14:41.889Z,15.60
2018-12-15T22:17:09.508Z,19.15
2018-12-15T22:19:38.088Z,18.70
2018-12-15T22:22:05.526Z,14.90
2018-12-15T22:24:32.988Z,15.28
2018-12-15T22:27:00.444Z,17.50
2018-12-15T22:29:27.974Z,18.35
2018-12-15T22:31:55.432Z,16.75
2018-12-15T22:34:22.871Z,16.65
2018-12-15T22:36:50.334Z,18.00
2018-12-15T22:39:17.774Z,18.37
2018-12-15T22:41:45.250Z,15.20
2018-12-15T22:44:12.736Z,16.40
2018-12-15T22:46:40.182Z,16.00
2018-12-15T22:49:07.627Z,16.90
2018-12-15T22:51:35.491Z,17.25
2018-12-15T22:54:02.967Z,18.15
2018-12-15T22:56:30.423Z,17.70
2018-12-15T22:58:57.858Z,18.50
2018-12-15T23:01:25.384Z,17.05
2018-12-15T23:03:52.831Z,17.45
2018-12-15T23:06:20.278Z,18.62
2018-12-15T23:08:47.718Z,19.27
2018-12-15T23:11:15.170Z,20.15
2018-12-15T23:13:42.602Z,16.17
2018-12-15T23:16:10.062Z,19.77
2018-12-15T23:18:37.519Z,19.65
2018-12-15T23:21:04.971Z,19.87
2018-12-15T23:23:32.411Z,17.12
2018-12-15T23:25:59.880Z,20.68
2018-12-15T23:28:27.318Z,20.55
2018-12-15T23:30:55.652Z,16.62
2018-12-15T23:33:23.099Z,22.30
2018-12-15T23:35:50.559Z,13.78
2018-12-15T23:38:17.994Z,17.80
2018-12-15T23:40:45.454Z,21.55
2018-12-15T23:43:12.898Z,20.43
2018-12-15T23:45:41.294Z,17.90
2018-12-15T23:48:09.675Z,19.90
2018-12-15T23:50:37.113Z,20.00
2018-12-15T23:53:04.567Z,15.60
2018-12-15T23:55:32.007Z,19.90
2018-12-15T23:58:00.359Z,21.50
